Time;durP1;ratioP1;P1;durP2;ratioP2;P2;SDS_P1;SDS_P2;PMS_P1;PMS_P2;Temp;Humidity;BMP_temperature;BMP_pressure;BME280_temperature;BME280_humidity;BME280_pressure;Samples;Min_cycle;Max_cycle;Signal;HPM_P1;HPM_P2
2022/02/09 00:10:23;;;;;;;3.05;1.73;;;;;;;7.48;39.51;96703.50;5048849;28;20553;-65
2022/02/09 00:34:02;;;;;;;3.33;1.58;;;;;;;7.36;39.94;96705.44;5072693;28;20035;-64
2022/02/09 00:37:04;;;;;;;1.92;1.58;;;;;;;6.88;39.96;96638.13;5072202;28;20032;-65
2022/02/09 00:40:10;;;;;;;3.13;1.70;;;;;;;7.27;40.16;96703.25;5071828;28;20111;-66
2022/02/09 01:39:13;;;;;;;2.80;1.65;;;;;;;7.30;43.23;96729.19;5071245;28;20035;-65
2022/02/09 01:57:16;;;;;;;2.20;1.50;;;;;;;7.48;44.77;96717.53;5070893;28;20043;-64
2022/02/09 01:59:45;;;;;;;1.93;1.67;;;;;;;7.61;44.56;96718.22;5070022;28;20078;-64
2022/02/09 02:02:11;;;;;;;2.72;1.58;;;;;;;7.72;44.32;96696.91;5070898;28;20108;-64
2022/02/09 02:04:38;;;;;;;2.63;1.55;;;;;;;8.00;44.73;96714.44;5071065;28;20028;-64
2022/02/09 02:07:10;;;;;;;1.52;1.38;;;;;;;8.21;43.77;96709.38;5070917;28;20056;-64
2022/02/09 02:09:37;;;;;;;;;;;;;;;8.42;43.59;96707.72;5052915;28;20029;-64
2022/02/09 02:12:11;;;;;;;2.03;1.30;;;;;;;8.62;43.56;96715.88;5070941;28;19912;-64
2022/02/09 02:14:48;;;;;;;1.30;1.20;;;;;;;8.55;43.11;96675.50;5070233;28;20052;-64
2022/02/09 02:19:49;;;;;;;3.05;1.38;;;;;;;8.91;42.65;96687.19;5070425;28;20024;-65
2022/02/09 02:22:37;;;;;;;1.73;1.30;;;;;;;9.02;42.37;96678.22;5070396;28;20024;-64
2022/02/09 02:46:57;;;;;;;2.22;1.73;;;;;;;9.31;41.30;96657.41;5036466;28;20029;-64
2022/02/09 03:07:44;;;;;;;2.17;1.83;;;;;;;9.55;40.96;96625.09;5073274;28;20032;-65
2022/02/09 03:13:29;;;;;;;3.17;1.65;;;;;;;9.08;40.94;96599.44;5074184;28;20036;-65
2022/02/09 03:16:01;;;;;;;2.55;1.38;;;;;;;9.03;41.21;96624.09;5073366;28;20107;-65
2022/02/09 03:21:55;;;;;;;1.65;1.30;;;;;;;8.96;41.69;96634.16;5073959;28;20036;-64
2022/02/09 03:24:06;;;;;;;0.95;0.95;;;;;;;8.99;41.80;96651.41;5064321;28;20071;-64
2022/02/09 03:43:17;;;;;;;3.63;1.10;;;;;;;7.97;43.45;96598.34;5073536;28;20484;-64
2022/02/09 03:48:45;;;;;;;2.50;1.08;;;;;;;8.22;43.69;96634.88;5072261;28;20028;-64
2022/02/09 03:59:20;;;;;;;1.35;1.20;;;;;;;7.58;43.83;96560.66;5072416;28;20040;-65
2022/02/09 04:01:46;;;;;;;1.23;1.00;;;;;;;7.71;43.95;96589.34;5054716;28;20009;-64
2022/02/09 04:04:12;;;;;;;1.70;1.45;;;;;;;7.72;44.47;96590.94;5073020;28;20107;-65
2022/02/09 04:06:39;;;;;;;1.48;0.95;;;;;;;7.81;44.42;96618.59;5072749;28;20032;-64
2022/02/09 04:09:10;;;;;;;0.80;0.80;;;;;;;7.73;44.16;96612.97;5072635;28;20591;-64
2022/02/09 04:12:04;;;;;;;1.00;0.85;;;;;;;7.62;44.26;96612.03;5072982;28;20028;-64
2022/02/09 04:20:16;;;;;;;1.30;0.88;;;;;;;7.36;44.91;96612.81;5072596;28;20027;-64
2022/02/09 04:38:54;;;;;;;0.95;0.85;;;;;;;6.85;46.39;96583.84;5072336;28;20058;-64
2022/02/09 04:44:08;;;;;;;1.25;1.00;;;;;;;6.85;46.67;96591.78;5072100;28;20099;-65
2022/02/09 04:54:50;;;;;;;1.75;1.05;;;;;;;6.80;47.43;96589.06;5048717;28;20116;-65
2022/02/09 04:57:30;;;;;;;2.30;1.15;;;;;;;6.80;47.29;96591.72;5054089;28;20023;-65
2022/02/09 05:17:40;;;;;;;2.38;1.10;;;;;;;6.67;48.31;96576.22;5071726;28;20090;-65
2022/02/09 05:24:25;;;;;;;1.23;0.90;;;;;;;6.74;48.07;96575.00;5071410;28;20031;-65
2022/02/09 05:27:03;;;;;;;2.85;1.10;;;;;;;6.60;48.03;96557.06;5071411;28;20032;-66
2022/02/09 05:29:30;;;;;;;1.88;1.30;;;;;;;6.77;48.41;96574.50;5052658;28;20035;-64
2022/02/09 05:31:55;;;;;;;2.20;1.80;;;;;;;6.61;48.49;96554.19;5071185;28;20461;-64
2022/02/09 05:34:21;;;;;;;1.92;1.30;;;;;;;6.78;48.43;96568.19;5052962;28;20108;-64
2022/02/09 05:36:46;;;;;;;1.48;1.13;;;;;;;6.83;48.25;96569.28;5071229;28;20024;-65
2022/02/09 05:39:13;;;;;;;1.25;0.95;;;;;;;6.55;48.41;96520.00;5052835;28;20028;-63
2022/02/09 05:41:44;;;;;;;2.58;1.52;;;;;;;6.56;47.77;96532.97;5070768;28;20048;-65
2022/02/09 05:44:11;;;;;;;3.85;1.67;;;;;;;6.81;47.96;96566.91;5052815;28;20112;-65
2022/02/09 05:49:28;;;;;;;2.92;1.30;;;;;;;6.32;48.29;96511.22;5070738;28;20032;-64
2022/02/09 05:52:02;;;;;;;1.45;1.10;;;;;;;6.64;48.34;96579.34;5052777;28;20427;-65
2022/02/09 05:59:48;;;;;;;3.20;3.00;;;;;;;6.68;48.59;96575.97;5070501;28;20040;-65
2022/02/09 06:02:16;;;;;;;1.73;1.48;;;;;;;6.66;48.16;96569.34;5070410;28;20021;-64
2022/02/09 06:04:41;;;;;;;1.38;1.23;;;;;;;6.23;48.14;96516.13;5070476;28;20092;-64
2022/02/09 06:07:07;;;;;;;2.83;1.50;;;;;;;6.48;48.25;96557.19;5070241;28;20036;-64
2022/02/09 06:09:33;;;;;;;0.98;0.88;;;;;;;6.41;48.47;96546.00;5052545;28;20028;-64
2022/02/09 06:12:17;;;;;;;1.40;1.15;;;;;;;6.26;48.81;96528.06;5069919;28;20028;-64
2022/02/09 06:20:13;;;;;;;1.20;1.10;;;;;;;6.20;49.84;96539.59;5070073;28;20071;-65
2022/02/09 06:22:38;;;;;;;3.47;2.55;;;;;;;6.30;50.26;96576.75;5052305;28;20119;-66
2022/02/09 06:25:04;;;;;;;3.20;1.98;;;;;;;6.59;50.11;96572.13;5069831;28;20448;-65
2022/02/09 06:27:29;;;;;;;3.53;2.08;;;;;;;6.56;49.39;96572.63;5070148;28;20115;-64
2022/02/09 06:29:54;;;;;;;3.05;1.80;;;;;;;6.21;49.95;96534.06;5069465;28;20046;-64
2022/02/09 06:32:20;;;;;;;1.88;1.70;;;;;;;6.28;49.32;96533.91;5070092;28;20105;-64
2022/02/09 06:34:47;;;;;;;1.70;1.35;;;;;;;6.77;48.82;96587.72;5070008;28;20100;-61
2022/02/09 06:37:22;;;;;;;3.28;1.25;;;;;;;6.84;48.75;96587.56;5070074;28;20028;-61
2022/02/09 06:39:55;;;;;;;1.80;1.17;;;;;;;6.84;48.46;96578.81;5069907;28;20029;-66
2022/02/09 06:42:23;;;;;;;1.73;1.40;;;;;;;6.84;48.26;96562.94;5070163;28;20029;-62
2022/02/09 06:44:55;;;;;;;1.95;1.50;;;;;;;6.90;48.08;96575.19;5069576;28;20020;-60
2022/02/09 06:47:26;;;;;;;4.68;1.50;;;;;;;6.60;48.10;96522.69;5069855;28;20727;-62
2022/02/09 06:50:02;;;;;;;2.50;1.55;;;;;;;6.91;48.22;96560.91;5051862;28;20099;-63
2022/02/09 06:52:28;;;;;;;1.70;1.38;;;;;;;6.84;48.03;96552.38;5069877;28;20032;-64
2022/02/09 06:57:57;;;;;;;1.58;1.40;;;;;;;6.93;48.08;96559.63;5069679;28;20051;-66
2022/02/09 07:00:22;;;;;;;5.10;1.50;;;;;;;6.86;48.11;96543.16;5068875;28;20071;-65
2022/02/09 07:02:48;;;;;;;3.58;1.55;;;;;;;7.22;47.87;96586.72;5069609;28;20107;-61
2022/02/09 07:05:15;;;;;;;6.47;1.50;;;;;;;7.25;47.78;96591.50;5069671;28;20064;-64
2022/02/09 07:07:41;;;;;;;2.38;1.40;;;;;;;7.31;47.74;96584.41;5070079;28;20029;-63
2022/02/09 07:10:08;;;;;;;2.80;1.60;;;;;;;6.83;47.51;96508.47;5051885;28;20516;-62
2022/02/09 07:12:34;;;;;;;3.55;1.92;;;;;;;7.32;47.28;96579.94;5070139;28;20024;-62
2022/02/09 07:15:00;;;;;;;2.65;1.90;;;;;;;7.45;48.05;96590.94;5069301;28;20392;-64
2022/02/09 07:17:26;;;;;;;5.88;1.60;;;;;;;7.46;47.97;96571.34;5069680;28;20092;-61
2022/02/09 07:20:03;;;;;;;3.40;1.65;;;;;;;7.55;47.68;96571.72;5069507;28;20024;-63
2022/02/09 07:22:31;;;;;;;2.03;1.83;;;;;;;7.22;47.67;96514.47;5070219;28;20431;-61
2022/02/09 07:25:08;;;;;;;3.28;1.73;;;;;;;7.60;47.15;96561.19;5073021;28;20048;-63
2022/02/09 07:27:47;;;;;;;7.63;1.30;;;;;;;7.74;47.06;96574.84;5073328;28;20398;-62
2022/02/09 07:30:13;;;;;;;2.58;1.40;;;;;;;7.80;47.05;96564.03;5072593;28;20025;-62
2022/02/09 07:32:39;;;;;;;1.88;1.48;;;;;;;7.67;46.82;96537.94;5073167;28;20100;-66
2022/02/09 07:35:05;;;;;;;2.35;1.77;;;;;;;7.72;47.02;96537.97;5073103;28;20481;-62
2022/02/09 07:37:30;;;;;;;4.43;2.17;;;;;;;8.02;47.16;96569.25;5073339;28;20025;-64
2022/02/09 07:39:58;;;;;;;4.30;3.20;;;;;;;7.86;47.14;96548.19;5072990;28;20438;-62
2022/02/09 07:42:26;;;;;;;6.28;4.20;;;;;;;8.21;47.15;96574.19;5072879;28;20463;-60
2022/02/09 07:47:36;;;;;;;11.13;5.93;;;;;;;8.33;46.58;96551.72;5070877;28;20024;-62
2022/02/09 07:52:50;;;;;;;7.28;3.58;;;;;;;8.76;46.03;96554.44;5073426;28;20047;-60
2022/02/09 07:55:16;;;;;;;9.65;3.08;;;;;;;8.98;45.81;96554.25;5072953;28;20639;-60
2022/02/09 07:57:41;;;;;;;2.83;2.22;;;;;;;9.03;45.53;96538.34;5072992;28;20031;-60
2022/02/09 08:00:08;;;;;;;5.10;2.25;;;;;;;9.13;45.07;96519.81;5072285;28;20380;-61
2022/02/09 08:02:34;;;;;;;3.67;2.47;;;;;;;9.38;45.03;96540.34;5072393;28;20029;-61
2022/02/09 08:04:59;;;;;;;3.70;1.80;;;;;;;9.35;44.24;96515.09;5073062;28;20095;-60
2022/02/09 08:07:26;;;;;;;2.17;1.80;;;;;;;9.70;44.30;96552.63;5054758;28;20056;-61
2022/02/09 08:09:51;;;;;;;4.50;1.33;;;;;;;9.42;43.88;96495.44;5072357;28;20094;-61
2022/02/09 08:20:27;;;;;;;2.95;1.10;;;;;;;10.13;43.48;96548.66;5064305;28;20027;-61
2022/02/09 08:22:30;;;;;;;2.15;1.00;;;;;;;10.20;42.98;96516.50;5071896;28;20028;-61
2022/02/09 08:24:02;;;;;;;1.23;0.90;;;;;;;10.68;42.51;96542.50;5072036;28;20107;-61
2022/02/09 08:29:44;;;;;;;1.80;1.48;;;;;;;11.08;41.13;96545.34;5072282;28;20027;-61
2022/02/09 08:34:25;;;;;;;1.75;1.35;;;;;;;11.37;40.30;96505.53;5071713;28;20186;-61
2022/02/09 08:36:52;;;;;;;5.43;1.20;;;;;;;11.75;40.67;96519.91;5072074;28;20083;-62
2022/02/09 08:39:17;;;;;;;2.90;1.95;;;;;;;12.06;39.77;96525.84;5072011;28;20575;-61
2022/02/09 08:41:43;;;;;;;2.58;1.50;;;;;;;12.53;39.20;96547.59;5072233;28;20054;-62
2022/02/09 08:44:08;;;;;;;2.28;1.17;;;;;;;12.63;39.28;96544.81;5054011;28;20087;-61
2022/02/09 08:46:33;;;;;;;3.08;1.48;;;;;;;12.80;39.31;96553.22;5071276;28;20109;-62
2022/02/09 08:48:59;;;;;;;2.28;1.20;;;;;;;12.82;38.70;96535.03;5071652;28;20024;-62
2022/02/09 08:51:27;;;;;;;3.58;1.10;;;;;;;12.89;38.39;96522.13;5071784;28;20362;-61
2022/02/09 08:53:52;;;;;;;5.10;1.25;;;;;;;13.00;38.18;96531.63;5071765;28;20039;-61
2022/02/09 08:56:18;;;;;;;2.05;1.42;;;;;;;12.76;38.33;96488.09;5071993;28;20095;-63
2022/02/09 08:58:44;;;;;;;7.25;1.10;;;;;;;12.95;38.30;96513.00;5071606;28;20033;-62
2022/02/09 09:01:21;;;;;;;2.50;0.95;;;;;;;12.93;38.18;96535.69;5071303;28;20271;-62
2022/02/09 09:03:51;;;;;;;2.97;1.00;;;;;;;12.85;38.67;96531.78;5071492;28;20021;-63
2022/02/09 09:06:21;;;;;;;3.25;1.17;;;;;;;11.36;38.85;96387.50;5071615;28;20035;-63
2022/02/09 09:09:22;;;;;;;7.55;1.05;;;;;;;11.82;40.33;96528.44;5071318;28;20024;-64
2022/02/09 09:17:28;;;;;;;2.40;0.90;;;;;;;10.46;40.99;96550.00;5071040;28;20059;-64
2022/02/09 10:01:16;;;;;;;2.30;1.10;;;;;;;11.82;38.50;96419.13;5070531;28;20024;-62
2022/02/09 10:04:15;;;;;;;1.33;0.80;;;;;;;12.42;37.41;96515.66;5070144;28;20033;-62
2022/02/09 10:34:41;;;;;;;1.38;0.90;;;;;;;11.88;37.07;96518.53;5070329;28;20536;-66
2022/02/09 10:37:07;;;;;;;2.17;1.10;;;;;;;11.91;37.49;96523.31;5070255;28;20027;-64
2022/02/09 10:39:59;;;;;;;2.20;0.80;;;;;;;12.03;37.61;96470.44;5069938;28;20527;-65
2022/02/09 10:42:48;;;;;;;2.63;1.13;;;;;;;13.12;35.77;96512.50;5070147;28;20055;-66
2022/02/09 10:45:33;;;;;;;5.03;0.82;;;;;;;13.18;34.69;96462.47;5070202;28;20081;-65
2022/02/09 10:48:04;;;;;;;3.33;1.02;;;;;;;12.77;35.00;96489.69;5069789;28;20051;-65
2022/02/09 10:50:36;;;;;;;1.50;0.88;;;;;;;13.36;34.56;96488.47;5069802;28;20044;-65
2022/02/09 10:53:04;;;;;;;1.05;0.90;;;;;;;13.41;33.71;96469.69;5070147;28;20029;-65
2022/02/09 10:55:39;;;;;;;1.58;0.90;;;;;;;11.97;35.48;96503.53;5051912;28;20109;-67
2022/02/09 10:58:12;;;;;;;1.60;0.90;;;;;;;12.37;34.95;96466.91;5073171;28;20025;-66
2022/02/09 11:00:43;;;;;;;0.95;0.80;;;;;;;11.84;35.08;96400.19;5073788;28;20024;-65
2022/02/09 11:03:20;;;;;;;1.65;0.70;;;;;;;12.99;34.42;96446.41;5073327;28;20047;-65
2022/02/09 11:05:47;;;;;;;3.30;1.00;;;;;;;13.08;33.69;96458.06;5053741;28;20654;-66
2022/02/09 11:08:13;;;;;;;3.00;0.88;;;;;;;13.74;33.32;96485.75;5053889;28;20112;-65
2022/02/09 11:10:40;;;;;;;2.70;0.98;;;;;;;12.51;34.15;96496.38;5053221;28;20021;-66
2022/02/09 11:13:09;;;;;;;1.75;1.02;;;;;;;13.01;33.42;96476.31;5053660;28;20032;-66
2022/02/09 11:15:37;;;;;;;3.20;0.60;;;;;;;12.42;33.33;96459.63;5053772;28;20032;-65
2022/02/09 11:18:03;;;;;;;2.85;0.75;;;;;;;13.04;33.27;96475.72;5070919;28;20539;-67
2022/02/09 11:20:31;;;;;;;1.73;0.70;;;;;;;12.10;33.33;96462.88;5073081;28;20100;-65
2022/02/09 11:22:57;;;;;;;0.85;0.70;;;;;;;12.67;32.90;96431.88;5073561;28;20099;-67
2022/02/09 11:25:31;;;;;;;2.80;1.05;;;;;;;13.02;32.62;96440.53;5073182;28;20039;-67
2022/02/09 11:28:22;;;;;;;1.10;1.00;;;;;;;14.17;31.38;96472.22;5087049;23;20098;-70
2022/02/09 11:31:09;;;;;;;1.70;1.00;;;;;;;13.39;31.37;96469.16;5055505;28;20538;-69
2022/02/09 11:34:02;;;;;;;1.50;0.80;;;;;;;13.77;30.87;96455.78;5054350;28;20036;-70
2022/02/09 11:39:05;;;;;;;3.00;1.20;;;;;;;14.22;30.06;96442.69;5053067;28;20047;-70
2022/02/09 11:41:50;;;;;;;2.15;1.45;;;;;;;14.27;29.67;96448.75;5052930;28;20021;-70
2022/02/09 11:44:46;;;;;;;4.32;1.08;;;;;;;14.29;30.41;96446.59;5052856;28;20079;-70
2022/02/09 11:47:43;;;;;;;1.60;1.00;;;;;;;12.96;32.42;96447.00;5062515;28;20082;-70
2022/02/09 12:10:06;;;;;;;6.05;1.50;;;;;;;13.53;33.55;96421.91;4954460;28;20050;-69
2022/02/09 12:12:56;;;;;;;2.35;1.00;;;;;;;12.56;35.99;96395.69;5034440;28;20064;-70
2022/02/09 12:15:52;;;;;;;1.58;0.45;;;;;;;13.13;35.35;96423.25;5034516;28;20402;-70
2022/02/09 12:18:27;;;;;;;1.95;0.75;;;;;;;13.29;35.31;96415.06;5053343;28;20031;-70
2022/02/09 12:21:14;;;;;;;1.85;0.77;;;;;;;13.66;34.42;96407.00;5052256;28;20539;-69
2022/02/09 12:23:42;;;;;;;2.17;0.60;;;;;;;12.98;35.82;96402.09;5052232;28;20025;-69
2022/02/09 12:26:10;;;;;;;3.72;0.80;;;;;;;13.82;35.03;96406.75;5052089;28;20470;-69
2022/02/09 12:28:39;;;;;;;2.05;0.75;;;;;;;14.49;33.63;96388.44;5052114;28;20029;-71
2022/02/09 12:31:13;;;;;;;3.88;1.00;;;;;;;14.27;34.35;96389.88;5052289;28;20021;-69
2022/02/09 12:33:47;;;;;;;1.65;0.68;;;;;;;14.19;34.58;96390.59;5035031;28;20359;-70
2022/02/09 12:36:21;;;;;;;0.70;0.50;;;;;;;13.81;35.05;96387.22;5052243;28;20021;-70
2022/02/09 12:38:48;;;;;;;3.60;1.17;;;;;;;14.91;33.90;96389.97;5051995;28;20029;-71
2022/02/09 12:41:17;;;;;;;0.60;0.50;;;;;;;15.19;32.99;96369.25;5052103;28;20063;-69
2022/02/09 12:44:04;;;;;;;3.05;1.35;;;;;;;14.53;33.92;96360.75;5052470;28;20025;-69
2022/02/09 12:46:34;;;;;;;2.42;1.02;;;;;;;14.93;33.85;96370.91;5053327;28;20037;-70
2022/02/09 12:49:14;;;;;;;2.25;0.57;;;;;;;14.38;35.17;96373.63;5057886;28;20017;-69
2022/02/09 12:51:41;;;;;;;1.58;0.60;;;;;;;14.56;34.97;96373.56;5051795;28;20025;-69
2022/02/09 12:54:10;;;;;;;1.63;0.60;;;;;;;14.69;34.70;96369.28;5051976;28;20075;-69
2022/02/09 12:56:39;;;;;;;1.90;0.50;;;;;;;14.71;34.21;96371.66;5052176;28;20035;-70
2022/02/09 12:59:11;;;;;;;0.82;0.50;;;;;;;14.44;35.14;96367.91;5051799;28;20021;-69
2022/02/09 13:01:41;;;;;;;2.47;0.50;;;;;;;13.95;35.82;96380.03;5053747;28;20112;-69
2022/02/09 13:04:07;;;;;;;2.10;0.43;;;;;;;13.86;36.53;96363.06;5056898;28;20469;-69
2022/02/09 13:06:33;;;;;;;1.35;0.60;;;;;;;15.15;35.06;96359.44;5051534;28;20047;-71
2022/02/09 13:08:58;;;;;;;0.70;0.47;;;;;;;14.99;34.62;96357.09;5051715;28;20397;-71
2022/02/09 13:11:29;;;;;;;1.15;0.45;;;;;;;15.81;33.42;96357.88;5051499;28;20017;-70
2022/02/09 13:14:13;;;;;;;0.77;0.77;;;;;;;14.61;34.96;96367.31;5051669;28;20025;-71
2022/02/09 13:16:56;;;;;;;2.22;0.50;;;;;;;15.11;34.75;96361.94;5053311;28;20263;-71
2022/02/09 13:19:41;;;;;;;1.67;0.55;;;;;;;15.77;33.85;96344.31;5062592;28;20143;-71
2022/02/09 14:15:17;;;;;;;0.30;0.30;;;;;;;14.89;37.10;96322.50;5027175;28;20517;-71
2022/02/09 15:00:28;;;;;;;1.55;0.60;;;;;;;15.64;35.28;96288.84;5057072;28;20056;-71
2022/02/09 15:06:09;;;;;;;4.05;0.90;;;;;;;15.79;34.72;96272.34;5015739;28;20055;-71
2022/02/09 15:11:26;;;;;;;0.90;0.50;;;;;;;15.86;35.11;96277.25;5057061;28;20028;-72
2022/02/09 15:14:07;;;;;;;3.05;0.60;;;;;;;15.25;35.96;96278.78;5057022;28;20098;-71
2022/02/09 15:16:50;;;;;;;1.05;0.40;;;;;;;15.18;36.41;96275.75;5056939;28;20107;-71
2022/02/09 15:24:39;;;;;;;4.45;0.80;;;;;;;16.08;34.78;96274.53;5057218;28;20685;-73
2022/02/09 15:27:07;;;;;;;1.77;0.60;;;;;;;15.89;34.49;96265.91;5056849;28;20473;-71
2022/02/09 15:29:37;;;;;;;1.70;0.63;;;;;;;15.73;34.94;96265.53;5038726;28;20059;-71
2022/02/09 15:32:06;;;;;;;1.42;0.57;;;;;;;16.02;34.56;96272.25;5056452;28;20111;-72
2022/02/09 15:34:38;;;;;;;3.33;1.00;;;;;;;15.26;36.00;96256.28;5056505;28;20036;-71
2022/02/09 15:39:43;;;;;;;2.25;0.68;;;;;;;15.96;34.82;96258.19;5056276;28;20118;-72
2022/02/09 15:42:31;;;;;;;1.27;0.73;;;;;;;15.94;34.75;96259.63;5056570;28;20021;-71
2022/02/09 16:09:37;;;;;;;1.70;0.70;;;;;;;15.05;36.04;96246.06;5052942;28;20032;-72
2022/02/09 16:21:10;;;;;;;1.23;0.90;;;;;;;14.83;37.19;96267.47;5054609;28;20512;-76
2022/02/09 16:23:05;;;;;;;2.10;0.93;;;;;;;14.66;37.20;96257.41;5063093;28;20025;-78
2022/02/09 16:33:50;;;;;;;3.00;1.30;;;;;;;14.23;38.86;96255.09;5059907;28;20143;-71
2022/02/09 16:46:37;;;;;;;2.55;1.65;;;;;;;13.84;39.35;96212.81;5052463;28;20071;-70
2022/02/09 16:49:13;;;;;;;3.70;1.70;;;;;;;13.37;39.61;96166.69;5058943;28;20020;-70
2022/02/09 16:51:51;;;;;;;3.08;2.00;;;;;;;13.81;39.96;96253.50;5059838;28;20025;-70
2022/02/09 17:21:07;;;;;;;6.82;4.38;;;;;;;13.05;41.58;96239.63;5051713;28;20036;-68
2022/02/09 17:23:32;;;;;;;7.75;4.35;;;;;;;12.80;41.98;96203.44;5051983;28;20032;-69
2022/02/09 17:25:58;;;;;;;13.15;6.10;;;;;;;12.97;42.60;96241.06;5034826;28;20017;-70
2022/02/09 17:28:24;;;;;;;14.00;5.25;;;;;;;12.71;42.42;96200.63;5052058;28;20086;-69
2022/02/09 17:31:06;;;;;;;11.07;5.68;;;;;;;12.75;42.19;96224.88;5033492;28;20111;-72
2022/02/09 17:36:19;;;;;;;10.15;5.70;;;;;;;12.39;42.56;96212.06;5051592;28;20029;-72
2022/02/09 17:57:56;;;;;;;8.82;4.82;;;;;;;11.37;43.49;96186.63;5042530;28;20029;-70
2022/02/09 18:00:21;;;;;;;8.40;5.03;;;;;;;11.47;43.37;96211.59;5050575;28;20110;-74
2022/02/09 18:02:53;;;;;;;8.48;5.63;;;;;;;11.56;44.11;96220.53;5050698;28;20053;-68
2022/02/09 18:05:24;;;;;;;6.97;5.40;;;;;;;11.41;44.49;96216.97;5053885;28;20135;-68
2022/02/09 18:07:55;;;;;;;7.80;5.13;;;;;;;11.49;44.22;96255.50;5032104;28;20043;-68
2022/02/09 18:13:46;;;;;;;14.57;6.00;;;;;;;11.11;45.22;96211.94;5050691;28;20036;-68
2022/02/09 18:27:24;;;;;;;10.13;5.90;;;;;;;10.91;46.04;96240.31;5070136;28;20075;-68
2022/02/09 18:29:34;;;;;;;6.95;5.68;;;;;;;10.85;45.87;96245.94;5069766;28;20028;-69
2022/02/09 19:04:02;;;;;;;9.35;6.20;;;;;;;9.57;46.95;96152.81;5057381;28;20376;-72
2022/02/09 19:07:10;;;;;;;8.45;5.32;;;;;;;9.81;47.49;96201.59;5043809;28;20392;-72
2022/02/09 19:30:48;;;;;;;6.55;4.40;;;;;;;9.37;47.58;96190.88;5053472;28;20561;-70
2022/02/09 19:33:32;;;;;;;6.63;3.72;;;;;;;9.34;47.66;96189.56;5053819;28;20028;-74
2022/02/09 19:47:14;;;;;;;6.65;4.15;;;;;;;8.87;47.29;96146.66;5073314;28;20029;-69
2022/02/09 19:52:35;;;;;;;7.68;3.97;;;;;;;8.84;48.14;96169.22;5056823;28;20040;-70
2022/02/09 19:57:27;;;;;;;4.85;3.63;;;;;;;9.13;47.56;96195.97;5053285;28;20040;-68
2022/02/09 19:59:56;;;;;;;4.95;3.83;;;;;;;9.00;47.75;96189.34;5052864;28;20478;-68
2022/02/09 20:02:21;;;;;;;6.07;3.60;;;;;;;9.14;47.46;96205.53;5053092;28;20017;-68
2022/02/09 20:04:47;;;;;;;4.40;3.38;;;;;;;9.10;47.45;96205.25;5061072;28;20029;-68
2022/02/09 20:07:12;;;;;;;4.88;3.50;;;;;;;9.00;47.48;96194.66;5052550;28;20028;-68
2022/02/09 20:09:38;;;;;;;5.65;3.58;;;;;;;9.02;47.83;96205.81;5052578;28;20029;-73
2022/02/09 20:12:04;;;;;;;4.15;3.15;;;;;;;9.10;47.74;96209.78;5034771;28;20028;-70
2022/02/09 20:14:30;;;;;;;4.55;3.60;;;;;;;9.08;47.63;96206.59;5052741;28;20393;-68
2022/02/09 20:16:56;;;;;;;6.75;3.85;;;;;;;8.93;47.73;96193.34;5052835;28;20021;-69
2022/02/09 20:19:21;;;;;;;4.85;3.80;;;;;;;9.00;47.58;96212.44;5059881;28;20475;-70
2022/02/09 20:21:47;;;;;;;6.82;3.97;;;;;;;8.83;47.78;96189.63;5052176;28;20092;-74
2022/02/09 20:24:15;;;;;;;5.40;3.95;;;;;;;8.89;47.49;96198.38;5034670;28;20620;-73
2022/02/09 20:26:42;;;;;;;5.47;3.85;;;;;;;8.86;48.12;96209.56;5052470;28;20553;-74
2022/02/09 20:29:25;;;;;;;5.88;4.20;;;;;;;8.62;48.45;96211.94;5051683;28;20432;-74
2022/02/09 20:32:16;;;;;;;5.88;4.55;;;;;;;8.73;48.49;96208.22;5052370;28;20075;-73
2022/02/09 20:34:49;;;;;;;7.32;4.72;;;;;;;8.69;48.54;96214.31;5058768;28;20210;-72
2022/02/09 20:37:15;;;;;;;5.22;4.07;;;;;;;8.61;48.71;96218.31;5052036;28;20012;-73
2022/02/09 20:39:52;;;;;;;6.32;3.97;;;;;;;8.41;48.60;96170.56;5034397;28;20060;-73
2022/02/09 20:42:18;;;;;;;4.75;3.17;;;;;;;8.44;48.88;96192.00;5052063;28;20036;-72
2022/02/09 20:44:53;;;;;;;4.93;3.55;;;;;;;8.54;48.92;96207.13;5052318;28;20040;-70
2022/02/09 20:47:18;;;;;;;5.47;4.40;;;;;;;8.37;48.53;96180.09;5052276;28;20028;-71
2022/02/09 20:49:43;;;;;;;7.80;4.15;;;;;;;8.19;48.66;96154.84;5040071;28;20035;-74
2022/02/09 20:52:13;;;;;;;6.22;4.45;;;;;;;8.41;48.07;96199.72;5052059;28;20677;-82
2022/02/09 20:54:39;;;;;;;5.40;4.15;;;;;;;8.37;48.25;96206.59;5052509;28;20021;-67
2022/02/09 20:57:04;;;;;;;6.10;4.20;;;;;;;8.36;48.77;96200.50;5052333;28;20029;-71
2022/02/09 20:59:30;;;;;;;5.22;3.90;;;;;;;8.40;48.63;96209.53;5034282;28;20376;-67
2022/02/09 21:02:03;;;;;;;5.32;3.90;;;;;;;8.33;48.72;96201.78;5052252;28;20423;-69
2022/02/09 21:04:30;;;;;;;4.90;4.25;;;;;;;8.13;48.62;96177.09;5058894;28;20089;-70
2022/02/09 21:07:18;;;;;;;10.43;4.35;;;;;;;8.25;48.85;96202.31;5058076;28;20025;-69
2022/02/09 21:09:54;;;;;;;4.25;3.72;;;;;;;7.67;48.54;96143.34;5051328;28;20021;-69
2022/02/09 21:12:39;;;;;;;3.72;3.17;;;;;;;7.53;48.96;96123.75;5051388;28;20017;-69
2022/02/09 21:15:34;;;;;;;3.63;3.33;;;;;;;8.05;48.98;96212.88;5051551;28;20500;-69
2022/02/09 21:43:35;;;;;;;4.20;3.15;;;;;;;7.66;49.07;96181.47;5038436;28;20043;-71
2022/02/09 21:55:38;;;;;;;2.85;2.55;;;;;;;7.44;49.75;96144.59;5051214;28;20036;-73
2022/02/09 21:58:17;;;;;;;6.07;3.30;;;;;;;7.58;49.55;96175.91;5033806;28;20112;-72
2022/02/09 22:06:28;;;;;;;4.85;2.72;;;;;;;7.54;49.42;96170.34;5053969;28;20496;-71
2022/02/09 22:22:14;;;;;;;4.50;3.08;;;;;;;7.62;49.15;96169.03;5050750;28;20403;-71
2022/02/09 22:27:31;;;;;;;5.10;2.95;;;;;;;7.46;49.56;96147.00;5050568;28;20178;-71
2022/02/09 22:56:50;;;;;;;4.00;2.25;;;;;;;7.44;48.67;96151.75;5054841;28;20036;-70
2022/02/09 22:59:24;;;;;;;2.80;2.20;;;;;;;7.32;48.23;96130.81;5054821;28;20028;-71
2022/02/09 23:01:54;;;;;;;2.17;1.83;;;;;;;7.48;48.56;96158.13;5054718;28;20021;-71
2022/02/09 23:07:30;;;;;;;3.10;1.95;;;;;;;7.40;48.33;96140.09;5054113;28;20126;-71
2022/02/09 23:26:16;;;;;;;2.22;2.00;;;;;;;7.16;48.25;96139.72;5054107;28;20102;-71
